KMCI/MCI METAR and TAF weather

Enter ICAO airport designator
Station Type Date Time Source
KMCI METAR 2019/06/17 13:53 UTC NOAA

KMCI 171353Z 08007KT 10SM FEW010 OVC200 22/19 A2994 RMK AO2 SLP129 T02220194


Station Type Date Time Source
KMCI Decoded METAR 2019/06/17 13:53 UTC NOAA

KANSAS CITY INTERNATIONAL AIRPORT, MO, United States (KMCI) 39-18N 94-44W 320M
Jun 17, 2019 - 09:53 AM EDT / 2019.06.17 1353 UTC
Wind: from the E (080 degrees) at 8 MPH (7 KT):0
Visibility: 10 mile(s):0
Sky conditions: overcast
Temperature: 72.0 F (22.2 C)
Dew Point: 66.9 F (19.4 C)
Relative Humidity: 84%
Pressure (altimeter): 29.94 in. Hg (1013 hPa)
ob: KMCI 171353Z 08007KT 10SM FEW010 OVC200 22/19 A2994 RMK AO2 SLP129 T02220194
cycle: 14

Station Type Date Time Source
KMCI TAF 2019/06/17 14:15 UTC NOAA

TAF
AMD KMCI 171412Z 1714/1812 06006KT P6SM SCT015
TEMPO 1714/1718 BKN015
FM171800 07007KT P6SM BKN050
FM180200 VRB05KT P6SM BKN120

Example: see airport list